Terminal Aerodrome Forecast
Issued by NWS Jackson, MS

Home | Current Version | Previous Version | Text Only | Print | Product List | Glossary On
Versions: 1 2 3 4 5 6 7 8 9 10 11 12 13 14 15 16 17
000
FTUS44 KJAN 302332
TAFMEI
TAF
KMEI 302332Z 0100/0124 15011KT P6SM -RA SCT025 OVC120
     FM010200 17007KT P6SM FEW050 SCT120
     FM010800 17005KT P6SM OVC015
     FM011000 17003KT 5SM BR OVC007
     FM011500 19009KT P6SM VCSH OVC025
     FM011700 19008KT P6SM VCTS BKN050CB=

USA.gov is the U.S. government's official web portal to all federal, state and local government web resources and services.